Time;durP1;ratioP1;P1;durP2;ratioP2;P2;SDS_P1;SDS_P2;PMS_P1;PMS_P2;Temp;Humidity;BMP_temperature;BMP_pressure;BME280_temperature;BME280_humidity;BME280_pressure;Samples;Min_cycle;Max_cycle;Signal;HPM_P1;HPM_P2
2022/06/18 00:01:21;;;;;;;15.77;14.17;;;;;;;20.11;87.80;95148.75;5115992;28;20953;-80
2022/06/18 00:03:49;;;;;;;15.87;14.17;;;;;;;20.09;87.78;95149.94;5116096;28;20471;-80
2022/06/18 00:06:16;;;;;;;13.93;12.40;;;;;;;20.01;87.86;95142.84;5115784;28;20444;-79
2022/06/18 00:08:43;;;;;;;14.33;12.90;;;;;;;19.83;88.47;95138.88;5115809;28;20442;-80
2022/06/18 00:13:52;;;;;;;15.53;12.03;;;;;;;19.78;89.13;95142.06;5115766;28;20439;-80
2022/06/18 00:16:22;;;;;;;15.80;13.60;;;;;;;19.78;88.78;95137.56;5115968;28;20439;-80
2022/06/18 00:18:50;;;;;;;14.70;13.10;;;;;;;19.72;89.17;95142.81;5113726;28;20975;-80
2022/06/18 00:21:20;;;;;;;13.97;12.63;;;;;;;19.70;89.10;95145.66;5115526;28;20484;-80
2022/06/18 00:23:47;;;;;;;15.13;13.30;;;;;;;19.72;89.33;95138.31;5115319;28;20447;-80
2022/06/18 00:26:14;;;;;;;14.47;13.17;;;;;;;19.67;89.41;95138.03;5115501;28;20507;-80
2022/06/18 00:28:41;;;;;;;15.37;13.10;;;;;;;19.66;89.26;95144.34;5115566;28;20455;-80
2022/06/18 00:31:08;;;;;;;19.43;12.43;;;;;;;19.65;89.11;95140.00;5115708;28;20876;-80
2022/06/18 00:33:39;;;;;;;14.97;13.57;;;;;;;19.64;89.24;95135.69;5115331;28;20443;-80
2022/06/18 00:36:13;;;;;;;14.63;13.13;;;;;;;19.56;89.52;95138.44;5115422;28;20451;-80
2022/06/18 00:38:42;;;;;;;14.03;12.77;;;;;;;19.59;89.30;95135.41;5115392;28;20530;-80
2022/06/18 00:41:15;;;;;;;15.03;13.70;;;;;;;19.65;88.82;95136.53;5113043;28;20486;-80
2022/06/18 00:43:45;;;;;;;16.23;13.83;;;;;;;19.71;89.01;95126.00;5115217;28;20448;-80
2022/06/18 00:46:19;;;;;;;14.57;13.27;;;;;;;19.78;88.75;95129.59;5079082;28;20440;-80
2022/06/18 00:48:51;;;;;;;16.90;12.80;;;;;;;19.83;88.58;95122.88;5115465;28;20436;-79
2022/06/18 00:51:26;;;;;;;13.73;12.30;;;;;;;19.86;88.63;95123.34;5115621;28;20462;-80
2022/06/18 00:54:01;;;;;;;13.97;12.60;;;;;;;19.85;88.46;95118.22;5115077;28;20934;-80
2022/06/18 00:56:33;;;;;;;14.33;13.00;;;;;;;19.87;88.06;95127.66;5114608;28;20442;-80
2022/06/18 00:59:03;;;;;;;14.60;13.03;;;;;;;19.89;88.24;95130.97;5114765;28;20526;-80
2022/06/18 01:01:33;;;;;;;13.93;12.63;;;;;;;19.89;88.31;95130.16;5115011;28;20435;-80
2022/06/18 01:04:00;;;;;;;15.33;11.97;;;;;;;19.83;88.24;95123.72;5114931;28;20538;-80
2022/06/18 01:06:32;;;;;;;13.70;12.50;;;;;;;19.83;88.34;95126.38;5115045;28;20444;-80
2022/06/18 01:09:02;;;;;;;18.23;12.50;;;;;;;19.76;88.89;95120.97;5114765;28;20451;-80
2022/06/18 01:11:34;;;;;;;22.77;14.33;;;;;;;19.74;88.94;95130.97;5114746;28;20443;-80
2022/06/18 01:14:04;;;;;;;20.67;13.53;;;;;;;19.70;88.99;95123.53;5114710;28;20816;-80
2022/06/18 01:16:32;;;;;;;14.30;12.90;;;;;;;19.60;89.50;95122.91;5114581;28;20493;-80
2022/06/18 01:19:00;;;;;;;14.93;13.53;;;;;;;19.57;89.61;95129.44;5114440;28;20452;-80
2022/06/18 01:21:35;;;;;;;16.53;13.87;;;;;;;19.51;89.97;95127.47;5078286;28;20436;-80
2022/06/18 01:24:11;;;;;;;15.30;13.27;;;;;;;19.41;90.11;95121.56;5114437;28;20779;-80
2022/06/18 01:26:39;;;;;;;12.93;11.60;;;;;;;19.38;90.12;95130.75;5114496;28;20443;-80
2022/06/18 01:29:06;;;;;;;15.80;12.47;;;;;;;19.33;90.40;95138.41;5114121;28;20439;-80
2022/06/18 01:31:33;;;;;;;14.13;12.63;;;;;;;19.32;90.16;95135.91;5114038;28;20452;-80
2022/06/18 01:34:01;;;;;;;13.70;12.30;;;;;;;19.27;90.42;95127.66;5114089;28;20950;-80
2022/06/18 01:36:32;;;;;;;13.73;12.40;;;;;;;19.25;90.85;95129.66;5114370;28;20518;-80
2022/06/18 01:39:00;;;;;;;13.50;12.20;;;;;;;19.24;90.33;95128.84;5114015;28;20444;-80
2022/06/18 01:41:52;;;;;;;13.47;12.07;;;;;;;19.17;90.64;95120.75;5113894;28;21016;-80
2022/06/18 01:44:24;;;;;;;16.73;13.50;;;;;;;18.87;91.68;95124.25;5113826;28;20479;-79
2022/06/18 01:46:55;;;;;;;14.90;13.43;;;;;;;18.83;91.85;95114.97;5114170;28;20439;-80
2022/06/18 01:49:29;;;;;;;13.50;12.20;;;;;;;18.85;92.44;95123.59;5113825;28;20799;-80
2022/06/18 01:51:58;;;;;;;13.83;12.43;;;;;;;18.83;92.33;95122.97;5113802;28;20466;-80
2022/06/18 01:54:32;;;;;;;12.53;11.43;;;;;;;18.78;92.36;95122.63;5114072;28;20444;-80
2022/06/18 01:57:06;;;;;;;17.10;13.27;;;;;;;18.73;92.26;95125.00;5113752;28;20778;-80
2022/06/18 01:59:38;;;;;;;15.67;13.13;;;;;;;18.73;92.68;95119.66;5113941;28;20451;-79
2022/06/18 02:02:05;;;;;;;17.30;13.13;;;;;;;18.70;92.87;95115.53;5113583;28;20451;-80
2022/06/18 02:04:34;;;;;;;13.57;12.27;;;;;;;18.73;92.68;95119.66;5113988;28;20497;-79
2022/06/18 02:07:04;;;;;;;13.67;12.47;;;;;;;18.70;92.28;95118.19;5077849;28;20949;-80
2022/06/18 02:09:38;;;;;;;13.67;12.37;;;;;;;18.72;92.18;95120.66;5114146;28;20451;-80
2022/06/18 02:12:13;;;;;;;13.50;12.10;;;;;;;18.70;92.21;95117.38;5113656;28;20445;-80
2022/06/18 02:14:44;;;;;;;14.10;12.60;;;;;;;18.68;92.30;95112.22;5113870;28;20423;-80
2022/06/18 02:17:17;;;;;;;18.80;11.60;;;;;;;18.65;91.60;95117.06;5113388;28;20440;-79
2022/06/18 02:19:48;;;;;;;13.30;12.00;;;;;;;18.64;91.29;95121.56;5113326;28;20448;-80
2022/06/18 02:22:16;;;;;;;12.70;11.00;;;;;;;18.63;91.64;95114.56;5113426;28;20523;-80
2022/06/18 02:24:43;;;;;;;13.57;11.70;;;;;;;18.60;91.46;95116.72;5094798;28;20996;-79
2022/06/18 02:27:14;;;;;;;11.70;10.67;;;;;;;18.56;91.54;95117.06;5113234;28;20439;-79
2022/06/18 02:29:44;;;;;;;12.50;11.30;;;;;;;18.50;91.55;95111.59;5113607;28;20447;-80
2022/06/18 02:32:19;;;;;;;12.23;10.93;;;;;;;18.46;91.65;95116.44;5113214;28;20482;-79
2022/06/18 02:34:46;;;;;;;11.77;10.57;;;;;;;18.43;91.47;95119.44;5113314;28;20778;-80
2022/06/18 02:37:24;;;;;;;13.33;12.03;;;;;;;18.39;91.56;95122.63;5113054;28;20443;-80
2022/06/18 02:40:00;;;;;;;14.90;12.20;;;;;;;18.39;91.59;95123.44;5113159;28;20973;-79
2022/06/18 02:42:33;;;;;;;12.30;11.00;;;;;;;18.41;91.57;95126.75;5113226;28;20960;-80
2022/06/18 02:45:03;;;;;;;16.63;11.80;;;;;;;18.44;91.44;95121.09;5113124;28;20485;-80
2022/06/18 02:47:30;;;;;;;11.57;10.53;;;;;;;18.45;91.41;95122.75;5111152;28;20951;-79
2022/06/18 02:49:59;;;;;;;14.90;12.97;;;;;;;18.43;91.49;95124.75;5111066;28;20447;-80
2022/06/18 02:52:32;;;;;;;11.67;10.57;;;;;;;18.40;91.30;95117.13;5113350;28;21000;-79
2022/06/18 02:55:02;;;;;;;17.60;11.00;;;;;;;18.41;91.27;95120.63;5113215;28;20450;-80
2022/06/18 02:57:30;;;;;;;13.30;11.90;;;;;;;18.35;91.14;95116.81;5112872;28;20440;-80
2022/06/18 02:59:57;;;;;;;13.83;11.60;;;;;;;18.31;91.09;95128.81;5113198;28;20450;-80
2022/06/18 03:02:24;;;;;;;11.57;10.57;;;;;;;18.28;90.83;95126.50;5112925;28;20921;-80
2022/06/18 03:04:51;;;;;;;12.27;10.70;;;;;;;18.26;91.22;95124.00;5113023;28;20475;-79
2022/06/18 03:07:18;;;;;;;12.90;10.53;;;;;;;18.21;91.29;95120.19;5093661;28;20443;-79
2022/06/18 03:12:31;;;;;;;15.40;11.50;;;;;;;18.22;90.90;95125.34;5112928;28;20469;-79
2022/06/18 03:14:58;;;;;;;11.70;10.57;;;;;;;18.16;91.18;95130.50;5112919;28;20797;-79
2022/06/18 03:17:25;;;;;;;11.87;10.70;;;;;;;18.15;91.39;95126.19;5112606;28;20455;-80
2022/06/18 03:19:57;;;;;;;13.23;11.90;;;;;;;18.20;91.27;95121.19;5112941;28;20455;-80
2022/06/18 03:22:24;;;;;;;12.40;11.20;;;;;;;18.18;91.41;95118.69;5112809;28;20440;-80
2022/06/18 03:24:51;;;;;;;12.87;11.50;;;;;;;18.19;91.67;95127.50;5116881;28;20486;-80
2022/06/18 03:27:19;;;;;;;11.40;10.30;;;;;;;18.23;91.68;95118.22;5116899;28;20446;-80
2022/06/18 03:29:49;;;;;;;11.83;10.83;;;;;;;18.32;91.30;95125.16;5116717;28;20450;-79
2022/06/18 03:32:16;;;;;;;11.83;10.70;;;;;;;18.46;90.39;95124.41;5116466;28;20483;-80
2022/06/18 03:34:43;;;;;;;14.00;9.07;;;;;;;18.67;89.40;95125.69;5116494;28;20438;-80
2022/06/18 03:37:10;;;;;;;11.47;10.37;;;;;;;18.89;88.35;95124.91;5116519;28;20439;-79
2022/06/18 03:39:37;;;;;;;10.50;9.33;;;;;;;19.13;86.98;95137.22;5116276;28;20447;-79
2022/06/18 03:42:04;;;;;;;12.77;9.57;;;;;;;19.41;85.51;95142.84;5080712;28;20481;-80
2022/06/18 03:44:31;;;;;;;10.83;9.53;;;;;;;19.67;83.61;95147.84;5116473;28;20443;-80
2022/06/18 03:47:02;;;;;;;12.30;8.70;;;;;;;19.99;82.42;95154.72;5116266;28;20478;-80
2022/06/18 03:49:31;;;;;;;9.40;8.53;;;;;;;20.33;80.21;95157.69;5116421;28;20478;-80
2022/06/18 03:51:59;;;;;;;8.90;8.10;;;;;;;20.63;78.95;95161.19;5116548;27;20427;-80
2022/06/18 03:54:27;;;;;;;9.30;8.47;;;;;;;20.93;77.56;95153.16;5116346;28;20447;-79
2022/06/18 03:56:54;;;;;;;17.00;8.37;;;;;;;21.20;76.07;95148.94;5097358;28;20453;-80
2022/06/18 03:59:22;;;;;;;8.20;7.50;;;;;;;21.42;74.74;95161.34;5115880;28;20952;-79
2022/06/18 04:01:49;;;;;;;8.87;7.73;;;;;;;21.61;73.86;95151.84;5116026;28;20926;-80
2022/06/18 04:04:18;;;;;;;10.27;9.23;;;;;;;21.81;72.97;95160.03;5115852;28;20814;-80
2022/06/18 04:06:45;;;;;;;15.33;8.70;;;;;;;22.08;71.65;95159.28;5116074;28;20471;-79
2022/06/18 04:09:12;;;;;;;7.00;6.40;;;;;;;22.38;71.22;95164.41;5116217;28;20778;-80
2022/06/18 04:11:39;;;;;;;8.97;7.80;;;;;;;22.55;69.65;95158.56;5116427;28;20439;-80
2022/06/18 04:14:06;;;;;;;7.57;6.87;;;;;;;22.69;68.98;95162.13;5116169;28;20446;-80
2022/06/18 04:16:33;;;;;;;7.80;7.00;;;;;;;22.81;68.82;95165.91;5115457;28;20439;-80
2022/06/18 04:19:00;;;;;;;11.00;7.77;;;;;;;22.95;67.17;95157.97;5115935;28;20457;-80
2022/06/18 04:21:29;;;;;;;7.83;7.03;;;;;;;23.15;66.94;95161.53;5115649;27;20496;-80
2022/06/18 04:23:55;;;;;;;7.50;6.77;;;;;;;23.34;65.46;95170.66;5115359;28;20534;-80
2022/06/18 04:26:22;;;;;;;13.63;7.40;;;;;;;23.66;66.18;95164.56;5115527;28;20483;-80
2022/06/18 04:28:49;;;;;;;8.67;7.77;;;;;;;23.94;64.76;95172.41;5115308;28;20439;-80
2022/06/18 04:31:16;;;;;;;7.07;6.37;;;;;;;24.03;61.74;95171.22;5115693;28;20439;-80
2022/06/18 04:33:43;;;;;;;7.50;6.90;;;;;;;23.95;62.21;95174.06;5112537;28;20833;-79
2022/06/18 04:36:21;;;;;;;8.93;6.50;;;;;;;24.00;61.49;95173.47;5115451;28;20439;-80
2022/06/18 04:38:49;;;;;;;6.90;6.27;;;;;;;24.13;61.79;95169.97;5114874;28;20941;-80
2022/06/18 04:41:16;;;;;;;9.50;6.60;;;;;;;24.24;60.79;95172.00;5114984;28;21040;-79
2022/06/18 04:43:43;;;;;;;6.33;5.70;;;;;;;24.42;60.22;95174.91;5114788;28;20447;-79
2022/06/18 04:46:10;;;;;;;7.80;6.60;;;;;;;24.52;59.54;95172.63;5115001;28;20576;-80
2022/06/18 04:48:37;;;;;;;7.27;6.67;;;;;;;24.48;58.74;95167.88;5078842;28;20443;-80
2022/06/18 04:51:04;;;;;;;9.40;6.07;;;;;;;24.49;59.44;95165.00;5114704;28;20439;-80
2022/06/18 04:53:31;;;;;;;6.93;6.27;;;;;;;24.36;59.77;95167.72;5114840;28;20444;-80
2022/06/18 04:55:59;;;;;;;7.37;6.57;;;;;;;24.44;59.33;95166.66;5079014;28;20434;-80
2022/06/18 04:58:26;;;;;;;9.70;6.50;;;;;;;24.55;58.73;95163.31;5114674;28;20444;-80
2022/06/18 05:00:54;;;;;;;8.13;5.97;;;;;;;24.59;58.20;95164.59;5095738;28;20454;-80
2022/06/18 05:03:22;;;;;;;9.60;6.23;;;;;;;24.50;58.50;95174.69;5115150;28;20446;-79
2022/06/18 05:05:49;;;;;;;5.97;5.47;;;;;;;24.57;57.75;95164.75;5114924;28;20536;-80
2022/06/18 05:08:15;;;;;;;6.53;5.93;;;;;;;24.71;58.46;95163.72;5114814;28;20447;-79
2022/06/18 05:10:42;;;;;;;7.43;6.30;;;;;;;24.76;57.45;95167.63;5114750;28;20458;-80
2022/06/18 05:13:11;;;;;;;7.63;6.93;;;;;;;24.70;57.36;95162.06;5114905;28;20459;-80
2022/06/18 05:15:40;;;;;;;7.07;5.23;;;;;;;24.87;56.68;95162.44;5114311;28;20946;-80
2022/06/18 05:18:07;;;;;;;23.10;7.03;;;;;;;24.94;57.19;95167.78;5114988;28;20843;-80
2022/06/18 05:20:34;;;;;;;6.83;5.47;;;;;;;25.23;56.85;95164.59;5115001;28;20447;-80
2022/06/18 05:23:01;;;;;;;8.30;5.00;;;;;;;25.33;55.79;95164.94;5114749;28;20451;-79
2022/06/18 05:25:28;;;;;;;5.30;4.90;;;;;;;25.47;54.34;95171.09;5114258;28;20569;-80
2022/06/18 05:27:55;;;;;;;6.30;5.70;;;;;;;25.55;54.13;95160.06;5114649;28;20428;-80
2022/06/18 05:30:25;;;;;;;14.23;6.60;;;;;;;25.62;53.54;95160.84;5114446;28;20444;-79
2022/06/18 05:32:52;;;;;;;7.13;5.87;;;;;;;25.78;53.49;95161.41;5114825;28;20493;-80
2022/06/18 05:35:19;;;;;;;8.50;5.60;;;;;;;26.09;53.34;95168.63;5114549;28;20454;-80
2022/06/18 05:37:46;;;;;;;8.00;4.77;;;;;;;25.89;52.13;95172.28;5113979;28;20427;-80
2022/06/18 05:40:14;;;;;;;7.90;6.27;;;;;;;25.92;51.14;95165.66;5114103;28;20467;-80
2022/06/18 05:42:41;;;;;;;10.10;5.13;;;;;;;25.72;53.43;95168.47;5114123;28;20443;-80
2022/06/18 05:45:09;;;;;;;7.67;5.20;;;;;;;26.10;51.98;95171.09;5113416;28;20444;-80
2022/06/18 05:47:37;;;;;;;5.40;5.00;;;;;;;26.38;51.15;95176.06;5113636;28;20483;-80
2022/06/18 05:50:07;;;;;;;5.60;5.10;;;;;;;26.50;49.50;95174.28;5114118;28;20436;-80
2022/06/18 05:52:34;;;;;;;5.80;4.90;;;;;;;26.75;49.19;95176.13;5113989;28;20439;-80
2022/06/18 05:55:02;;;;;;;6.10;5.60;;;;;;;26.65;49.71;95183.91;5078073;28;20462;-81
2022/06/18 05:57:29;;;;;;;8.33;5.33;;;;;;;26.66;50.01;95178.28;5114113;28;20432;-80
2022/06/18 05:59:55;;;;;;;7.57;5.27;;;;;;;26.61;49.79;95180.00;5113890;28;20440;-80
2022/06/18 06:02:23;;;;;;;5.23;4.93;;;;;;;26.78;49.20;95164.91;5113786;28;20466;-80
2022/06/18 06:04:51;;;;;;;5.80;5.30;;;;;;;26.94;49.40;95176.97;5111805;28;20443;-80
2022/06/18 06:07:21;;;;;;;5.73;5.23;;;;;;;26.82;47.85;95171.47;5113734;28;20478;-80
2022/06/18 06:12:34;;;;;;;5.60;5.20;;;;;;;26.11;48.58;95180.00;5051055;28;20502;-81
2022/06/18 06:15:01;;;;;;;7.63;6.00;;;;;;;25.81;50.74;95177.94;5050911;28;20453;-80
2022/06/18 06:17:28;;;;;;;5.80;5.20;;;;;;;25.61;51.33;95182.56;5050830;28;20445;-81
2022/06/18 06:20:04;;;;;;;5.80;5.30;;;;;;;25.73;52.61;95178.16;5050882;28;20489;-81
2022/06/18 06:22:30;;;;;;;5.87;5.37;;;;;;;25.94;51.46;95177.81;5050513;28;20957;-81
2022/06/18 06:24:57;;;;;;;6.70;6.00;;;;;;;26.24;50.66;95183.38;5050558;28;20446;-81
2022/06/18 06:27:24;;;;;;;6.23;5.60;;;;;;;26.23;49.32;95178.22;5001193;28;20497;-80
2022/06/18 06:29:51;;;;;;;5.77;5.23;;;;;;;26.17;49.95;95176.41;5050590;28;20560;-81
2022/06/18 06:32:18;;;;;;;6.97;5.50;;;;;;;26.25;49.31;95166.19;5050838;28;20823;-81
2022/06/18 06:34:45;;;;;;;8.70;6.10;;;;;;;26.48;49.54;95171.00;5050302;28;20446;-81
2022/06/18 06:37:13;;;;;;;10.03;5.53;;;;;;;26.75;49.13;95174.25;5050431;28;20442;-80
2022/06/18 06:39:40;;;;;;;6.83;5.87;;;;;;;26.83;48.67;95173.94;5050562;28;20426;-81
2022/06/18 06:42:07;;;;;;;6.60;6.00;;;;;;;27.09;48.27;95166.66;5050355;28;20446;-80
2022/06/18 06:44:34;;;;;;;10.17;6.23;;;;;;;27.36;48.04;95177.91;5050365;28;20446;-81
2022/06/18 06:47:01;;;;;;;8.03;6.50;;;;;;;27.58;46.42;95176.38;5050278;28;20480;-81
2022/06/18 06:49:28;;;;;;;7.70;5.53;;;;;;;27.57;45.78;95177.44;5078713;28;20439;-81
2022/06/18 06:51:54;;;;;;;6.13;5.53;;;;;;;27.59;45.58;95180.72;5113046;28;20432;-80
2022/06/18 06:54:23;;;;;;;6.27;5.77;;;;;;;27.38;46.27;95173.94;5112855;28;20448;-81
2022/06/18 06:59:34;;;;;;;9.60;5.37;;;;;;;27.51;45.84;95170.25;5117304;28;20446;-80
2022/06/18 07:02:02;;;;;;;5.07;4.77;;;;;;;27.50;45.74;95174.00;5117352;28;20806;-80
2022/06/18 07:04:32;;;;;;;6.63;5.83;;;;;;;27.59;45.97;95169.94;5081809;28;20447;-81
2022/06/18 07:06:59;;;;;;;6.60;5.10;;;;;;;27.83;45.12;95175.44;5081515;28;20848;-81
2022/06/18 07:09:27;;;;;;;6.97;6.33;;;;;;;27.94;44.96;95174.66;5117414;28;20532;-80
2022/06/18 07:11:54;;;;;;;6.50;5.80;;;;;;;27.87;43.90;95165.84;5116972;28;20770;-80
2022/06/18 07:14:21;;;;;;;5.80;4.70;;;;;;;28.00;42.57;95168.31;5117340;28;20443;-81
2022/06/18 07:16:49;;;;;;;5.03;4.63;;;;;;;27.97;44.00;95168.78;5116925;28;20510;-81
2022/06/18 07:19:16;;;;;;;6.60;5.20;;;;;;;27.81;45.80;95167.59;5116815;28;20840;-81
2022/06/18 07:21:43;;;;;;;9.17;5.30;;;;;;;27.75;45.74;95169.31;5116936;28;20447;-81
2022/06/18 07:24:10;;;;;;;6.80;6.13;;;;;;;27.90;43.88;95159.97;5116800;28;20530;-81
2022/06/18 07:26:38;;;;;;;6.20;5.40;;;;;;;27.96;44.42;95167.13;5116627;28;21005;-82
2022/06/18 07:29:05;;;;;;;5.57;5.07;;;;;;;28.07;44.81;95164.50;5116817;28;20451;-81
2022/06/18 07:31:33;;;;;;;7.67;6.47;;;;;;;28.21;44.43;95165.06;5116972;27;20451;-81
2022/06/18 07:34:01;;;;;;;9.33;6.40;;;;;;;28.23;44.12;95168.38;5116694;28;20842;-81
2022/06/18 07:36:30;;;;;;;9.73;5.60;;;;;;;28.18;44.05;95162.84;5116272;28;20470;-81
2022/06/18 07:38:57;;;;;;;5.90;5.50;;;;;;;28.32;43.28;95172.38;5116719;28;20461;-82
2022/06/18 07:41:32;;;;;;;9.10;5.50;;;;;;;27.93;43.81;95168.44;5116691;28;20486;-81
2022/06/18 07:44:01;;;;;;;7.53;5.27;;;;;;;27.77;43.78;95161.84;5116847;28;20438;-81
2022/06/18 07:46:28;;;;;;;8.03;5.63;;;;;;;27.71;44.58;95165.44;5116382;28;20859;-81
2022/06/18 07:48:54;;;;;;;7.63;5.20;;;;;;;27.65;44.17;95165.53;5116308;28;20522;-81
2022/06/18 07:51:21;;;;;;;6.37;5.87;;;;;;;27.31;43.70;95164.31;5116138;28;20497;-81
2022/06/18 07:53:48;;;;;;;5.20;4.80;;;;;;;27.24;43.37;95155.50;5116527;28;20474;-82
2022/06/18 07:56:16;;;;;;;5.60;4.90;;;;;;;26.76;46.08;95162.44;5116337;28;20443;-81
2022/06/18 07:58:43;;;;;;;6.30;5.70;;;;;;;26.95;45.59;95157.06;5116470;28;20446;-81
2022/06/18 08:01:11;;;;;;;5.33;4.93;;;;;;;26.97;45.54;95150.38;5097017;28;20443;-81
2022/06/18 08:03:39;;;;;;;7.00;5.90;;;;;;;27.08;44.41;95151.53;5116100;28;20496;-81
2022/06/18 08:06:07;;;;;;;5.70;5.30;;;;;;;27.15;45.31;95155.78;5115931;28;20454;-81
2022/06/18 08:08:34;;;;;;;5.87;5.40;;;;;;;27.15;45.03;95150.38;5115434;28;20482;-81
2022/06/18 08:11:01;;;;;;;5.40;5.00;;;;;;;27.01;44.31;95153.47;5116121;28;20454;-81
2022/06/18 08:13:28;;;;;;;5.63;5.10;;;;;;;26.67;46.27;95144.94;5116008;28;20937;-81
2022/06/18 08:15:54;;;;;;;5.37;4.87;;;;;;;26.53;46.34;95155.00;5116044;28;20447;-82
2022/06/18 08:18:23;;;;;;;8.27;6.03;;;;;;;26.14;47.50;95145.41;5116405;28;20458;-81
2022/06/18 08:20:50;;;;;;;6.40;5.87;;;;;;;25.87;48.63;95152.84;5115535;28;20435;-81
2022/06/18 08:23:17;;;;;;;8.60;6.23;;;;;;;25.70;48.67;95161.66;5115735;28;20461;-82
2022/06/18 08:25:44;;;;;;;6.50;5.90;;;;;;;25.56;49.02;95156.34;5115719;28;20534;-82
2022/06/18 08:28:12;;;;;;;6.13;5.63;;;;;;;25.27;49.25;95156.94;5115493;28;20474;-82
2022/06/18 08:30:41;;;;;;;8.33;5.10;;;;;;;25.19;49.53;95160.69;5115633;28;20454;-82
2022/06/18 08:33:09;;;;;;;6.50;5.90;;;;;;;25.11;50.98;95149.34;5115627;28;20455;-81
2022/06/18 08:35:38;;;;;;;6.13;5.63;;;;;;;25.02;51.19;95163.03;5115767;28;20521;-82
2022/06/18 08:38:07;;;;;;;6.27;5.70;;;;;;;25.17;51.11;95156.56;5096712;28;20522;-81
2022/06/18 08:40:50;;;;;;;6.53;6.03;;;;;;;25.13;51.35;95161.53;5115422;28;20467;-81
2022/06/18 08:43:50;;;;;;;7.33;6.03;;;;;;;25.17;52.24;95146.66;5115283;28;20443;-82
2022/06/18 08:46:27;;;;;;;6.57;5.20;;;;;;;25.36;50.83;95150.25;4993141;28;20449;-81
2022/06/18 08:49:25;;;;;;;6.50;5.80;;;;;;;25.57;51.44;95152.63;4993193;28;20448;-81
2022/06/18 08:52:06;;;;;;;7.40;6.23;;;;;;;25.68;49.76;95158.38;4993137;28;20445;-81
2022/06/18 08:54:46;;;;;;;7.30;5.70;;;;;;;25.72;49.74;95149.63;4993228;28;20806;-81
2022/06/18 08:57:21;;;;;;;6.10;5.60;;;;;;;25.99;49.81;95149.44;4993355;28;20461;-79
2022/06/18 09:00:01;;;;;;;9.80;5.70;;;;;;;26.43;49.64;95157.38;4960697;28;20560;-81
2022/06/18 09:02:33;;;;;;;6.30;5.47;;;;;;;26.39;47.89;95145.41;4992479;28;20451;-80
2022/06/18 09:05:11;;;;;;;6.73;6.10;;;;;;;26.03;48.79;95143.44;4992772;28;20449;-80
2022/06/18 09:07:54;;;;;;;5.77;5.27;;;;;;;25.58;49.47;95137.31;4992878;28;20484;-80
2022/06/18 09:10:34;;;;;;;6.57;5.80;;;;;;;25.40;51.26;95147.97;4992791;28;20831;-79
2022/06/18 09:13:05;;;;;;;8.50;5.90;;;;;;;25.07;51.64;95146.25;4960127;28;20445;-79
2022/06/18 09:15:38;;;;;;;6.63;5.67;;;;;;;24.96;51.32;95150.41;4992785;28;20449;-80
2022/06/18 09:18:11;;;;;;;6.13;5.67;;;;;;;25.11;51.18;95139.44;4993133;28;20452;-80
2022/06/18 09:20:44;;;;;;;6.10;5.40;;;;;;;25.39;51.18;95144.44;4991556;28;20464;-80
2022/06/18 09:23:18;;;;;;;7.23;6.60;;;;;;;25.40;53.37;95138.03;5042747;28;20431;-80
2022/06/18 09:25:49;;;;;;;7.40;6.70;;;;;;;25.44;51.67;95135.72;5114651;28;20957;-79
2022/06/18 09:28:22;;;;;;;10.10;5.37;;;;;;;24.79;50.34;95153.78;5114508;28;20471;-80
2022/06/18 09:30:54;;;;;;;5.93;5.43;;;;;;;24.59;51.08;95156.53;5114614;28;20447;-79
2022/06/18 09:33:25;;;;;;;6.37;5.80;;;;;;;24.35;55.76;95155.34;5114418;28;20496;-79
2022/06/18 09:35:55;;;;;;;5.70;5.30;;;;;;;24.35;56.04;95155.34;5095282;28;20921;-80
2022/06/18 09:38:28;;;;;;;6.80;5.30;;;;;;;24.12;55.65;95146.84;5114619;28;20446;-80
2022/06/18 09:40:59;;;;;;;6.13;5.60;;;;;;;24.00;54.93;95150.19;5114414;28;20964;-80
2022/06/18 09:43:33;;;;;;;6.63;6.03;;;;;;;24.00;55.17;95149.34;5114125;28;20963;-80
2022/06/18 09:46:04;;;;;;;5.70;5.30;;;;;;;24.01;56.99;95149.16;5114146;28;20440;-80
2022/06/18 09:48:31;;;;;;;15.93;5.93;;;;;;;24.13;59.07;95148.50;5113775;28;20489;-80
2022/06/18 09:51:03;;;;;;;11.30;5.80;;;;;;;24.15;57.10;95152.63;5114117;28;20455;-80
2022/06/18 09:53:35;;;;;;;6.60;6.07;;;;;;;24.17;56.15;95147.06;5114105;28;20479;-79
2022/06/18 09:56:07;;;;;;;6.20;5.60;;;;;;;24.28;57.99;95149.94;5113943;28;20444;-80
2022/06/18 09:58:38;;;;;;;7.27;6.37;;;;;;;24.29;54.21;95143.59;5114545;28;20451;-80
2022/06/18 10:01:07;;;;;;;5.97;5.20;;;;;;;24.43;56.36;95148.91;5114292;28;20477;-80
2022/06/18 10:09:14;;;;;;;10.57;5.80;;;;;;;24.71;54.88;95136.88;5113761;28;20423;-80
2022/06/18 10:11:42;;;;;;;6.30;5.80;;;;;;;24.81;55.52;95143.66;5114273;28;20462;-80
2022/06/18 10:14:14;;;;;;;6.60;6.10;;;;;;;24.76;55.57;95132.72;5113707;28;20954;-80
2022/06/18 10:16:54;;;;;;;7.10;6.37;;;;;;;24.93;58.34;95139.28;5113651;28;21044;-80
2022/06/18 10:19:32;;;;;;;8.40;6.27;;;;;;;24.91;56.33;95141.34;5114105;28;20431;-79
2022/06/18 10:22:09;;;;;;;5.87;5.47;;;;;;;24.85;56.55;95142.19;5113542;28;20447;-80
2022/06/18 10:24:47;;;;;;;6.50;5.90;;;;;;;24.98;55.48;95142.16;5113671;28;20450;-80
2022/06/18 10:27:21;;;;;;;7.57;6.30;;;;;;;25.10;57.36;95137.78;5077937;28;20483;-80
2022/06/18 10:29:54;;;;;;;6.30;5.80;;;;;;;25.17;57.12;95135.91;5113544;28;20443;-80
2022/06/18 10:32:31;;;;;;;7.00;6.40;;;;;;;25.42;57.47;95129.75;5077647;28;20435;-80
2022/06/18 10:35:11;;;;;;;7.40;6.50;;;;;;;25.55;54.48;95129.69;5113248;28;20505;-80
2022/06/18 10:37:51;;;;;;;6.33;5.83;;;;;;;25.37;54.10;95124.22;5113155;28;20558;-80
2022/06/18 10:40:29;;;;;;;7.10;6.20;;;;;;;25.44;55.75;95130.38;5112948;28;20475;-80
2022/06/18 10:43:14;;;;;;;8.57;6.83;;;;;;;25.36;54.45;95133.31;5112486;28;20947;-80
2022/06/18 10:45:46;;;;;;;7.27;6.60;;;;;;;25.27;53.57;95133.56;5113101;28;20453;-80
2022/06/18 10:48:15;;;;;;;6.67;6.07;;;;;;;25.19;57.94;95130.31;5113033;28;21031;-80
2022/06/18 10:50:44;;;;;;;8.23;7.47;;;;;;;25.06;60.73;95138.41;5113097;28;20440;-80
2022/06/18 10:53:15;;;;;;;7.60;6.80;;;;;;;24.60;61.76;95124.13;5113421;28;20444;-80
2022/06/18 10:55:44;;;;;;;7.87;7.17;;;;;;;24.44;61.88;95132.59;5112985;28;20449;-80
2022/06/18 10:58:12;;;;;;;7.87;7.20;;;;;;;24.27;64.18;95129.50;5113150;28;20427;-80
2022/06/18 11:00:40;;;;;;;8.37;7.30;;;;;;;24.15;65.23;95141.06;5112733;28;20436;-80
2022/06/18 11:03:19;;;;;;;7.20;6.67;;;;;;;23.97;64.75;95133.66;5112704;28;20448;-80
2022/06/18 11:05:49;;;;;;;7.03;6.33;;;;;;;24.15;65.57;95122.31;5113180;28;20824;-79
2022/06/18 11:08:23;;;;;;;7.10;6.40;;;;;;;24.43;59.38;95122.09;5113265;28;20475;-80
2022/06/18 11:10:57;;;;;;;7.20;6.60;;;;;;;24.32;59.51;95115.50;5112963;28;20917;-80
2022/06/18 11:13:29;;;;;;;8.03;7.40;;;;;;;24.07;61.32;95118.81;5113162;28;20517;-80
2022/06/18 11:16:12;;;;;;;8.07;7.30;;;;;;;23.81;64.68;95126.88;5113607;28;20447;-80
2022/06/18 11:18:48;;;;;;;7.97;7.37;;;;;;;23.93;66.99;95132.41;5113242;28;20447;-80
2022/06/18 11:21:22;;;;;;;8.30;7.43;;;;;;;23.97;64.94;95131.78;5112778;28;20514;-80
2022/06/18 11:23:54;;;;;;;7.93;7.33;;;;;;;23.87;64.34;95134.06;5078431;28;20435;-80
2022/06/18 11:26:26;;;;;;;8.10;7.40;;;;;;;23.78;65.54;95140.69;5093872;28;20439;-80
2022/06/18 11:28:55;;;;;;;8.83;7.13;;;;;;;23.59;66.54;95133.44;5112503;28;20487;-79
2022/06/18 11:31:27;;;;;;;8.60;7.57;;;;;;;23.53;67.06;95144.94;5113299;28;20447;-80
2022/06/18 11:34:04;;;;;;;10.77;7.33;;;;;;;23.44;66.65;95150.50;5077558;28;20798;-80
2022/06/18 11:36:41;;;;;;;8.27;7.43;;;;;;;23.39;66.18;95150.25;5113102;28;20450;-80
2022/06/18 11:39:32;;;;;;;8.73;6.40;;;;;;;23.35;67.11;95154.38;5112884;28;20447;-80
2022/06/18 11:42:08;;;;;;;6.87;6.37;;;;;;;23.47;65.92;95154.63;5113352;28;20447;-80
2022/06/18 11:44:41;;;;;;;6.93;6.40;;;;;;;23.61;63.82;95155.50;5114800;28;21006;-80
2022/06/18 11:47:15;;;;;;;6.90;6.23;;;;;;;23.83;65.25;95164.19;5116438;28;20450;-80
2022/06/18 11:49:51;;;;;;;9.43;6.73;;;;;;;24.14;64.29;95160.88;5116722;28;20465;-80
2022/06/18 11:52:23;;;;;;;8.77;6.53;;;;;;;24.34;62.51;95164.41;5116808;28;20447;-81
2022/06/18 11:55:03;;;;;;;6.67;6.03;;;;;;;24.43;62.64;95160.47;5116384;28;20439;-80
2022/06/18 11:57:39;;;;;;;7.70;6.23;;;;;;;24.56;62.65;95159.59;5080780;28;20439;-80